Sandy, OR (97055)

2:10 AM PDT on April 25, 2017 (GMT -0700)
Sandy City Center | | Change Station

Elev 948 ft 45.40 °N, 122.27 °W | Updated 1 second ago

Overcast
Overcast
43.5 °F
Feels Like 44 °F
N
0.0
Wind Variable Wind from SW
Gusts 0.0 mph

Today
High -- | Low -- °F
--% Chance of Precip.
Yesterday
High -- | Low -- °F
Precip. -- in
Pressure 30.01 in
Visibility 10.0 miles
Clouds Overcast 3400 ft
Windchill 44 °F
Dew Point 43 °F
Humidity 99%
Rainfall 0.00 in
Snow Depth Not available.
6:06 AM 8:08 PM
Waning Crescent, 2% visible
METAR KTTD 250853Z AUTO 20005KT 10SM OVC034 09/07 A3001 RMK AO2 SLP163 T00940072 51008
Pressure 30.01 in
Visibility 10.0 miles
Clouds Overcast 3400 ft
Windchill 44 °F
Dew Point 43 °F
Humidity 99%
Rainfall 0.00 in
Snow Depth Not available.
6:06 AM 8:08 PM
Waning Crescent, 2% visible
METAR KTTD 250853Z AUTO 20005KT 10SM OVC034 09/07 A3001 RMK AO2 SLP163 T00940072 51008

Get Severe Weather Alerts

Thanks for signing up!

Be on the lookout for a verification email in your inbox.

You'll start receiving the daily forecast at 8 AM.

×

10-Day Weather Forecast

Almanac

Astronomy

Apr. 25, 2017 Rise Set
Actual Time
Civil Twilight
Nautical Twilight
Astronomical Twilight
Moon
Length of Visible Light
Length of Day
Tomorrow will be .
, % of the Moon is Illuminated

Today's Extremes

State Highs State Lows

Community

WunderPhotos

WunderBlog® & News

Nearby

Air Quality

  Air Quality AQ Index Pollutant
Not available.

Snow Depth

Station Depth Elevation

Earthquake Activity

City Distance Mag. Time & Date
Minimum magnitude displayed is 2.5.

Coastal Water Temperatures

Place Temperature

Stations

Nearby Weather Stations

Station Location Temp. Windchill Dew Point Humidity Wind Precip. Elev Updated Type
                   

Watches & Warnings

There are currently no watches in effect.